createdAt,value
2019-05-07T00:00:32.921Z,17.10
2019-05-07T00:01:37.569Z,17.90
2019-05-07T00:02:43.081Z,17.50
2019-05-07T00:03:48.593Z,17.30
2019-05-07T00:04:54.104Z,17.60
2019-05-07T00:05:59.618Z,17.70
2019-05-07T00:07:05.120Z,17.50
2019-05-07T00:08:12.174Z,17.30
2019-05-07T00:09:16.142Z,17.40
2019-05-07T00:10:21.850Z,17.80
2019-05-07T00:11:27.156Z,17.60
2019-05-07T00:12:32.667Z,18.60
2019-05-07T00:13:38.180Z,18.50
2019-05-07T00:14:57.929Z,18.00
2019-05-07T00:15:49.198Z,17.90
2019-05-07T00:16:54.706Z,17.80
2019-05-07T00:18:00.215Z,17.60
2019-05-07T00:19:05.714Z,18.80
2019-05-07T00:20:12.795Z,17.90
2019-05-07T00:21:16.740Z,17.60
2019-05-07T00:22:22.876Z,17.70
2019-05-07T00:23:27.754Z,17.70
2019-05-07T00:24:33.343Z,17.80
2019-05-07T00:25:38.779Z,17.20
2019-05-07T00:26:44.286Z,17.40
2019-05-07T00:27:52.177Z,17.50
2019-05-07T00:28:55.306Z,17.90
2019-05-07T00:30:02.900Z,17.70
2019-05-07T00:31:06.322Z,16.50
2019-05-07T00:32:12.193Z,16.70
2019-05-07T00:33:17.337Z,16.70
2019-05-07T00:34:22.848Z,16.20
2019-05-07T00:35:28.357Z,17.60
2019-05-07T00:36:33.890Z,17.30
2019-05-07T00:37:39.383Z,17.00
2019-05-07T00:38:44.883Z,17.00
2019-05-07T00:39:50.390Z,16.70
2019-05-07T00:40:55.901Z,16.90
2019-05-07T00:42:03.051Z,16.80
2019-05-07T00:43:06.913Z,16.90
2019-05-07T00:44:13.554Z,16.80
2019-05-07T00:45:20.647Z,17.30
2019-05-07T00:46:23.444Z,16.20
2019-05-07T00:47:28.963Z,17.00
2019-05-07T00:48:34.458Z,17.00
2019-05-07T00:49:39.971Z,16.50
2019-05-07T00:50:45.478Z,16.80
2019-05-07T00:51:51.917Z,17.20
2019-05-07T00:52:56.505Z,16.10
2019-05-07T00:54:02.859Z,16.80
2019-05-07T00:55:07.517Z,16.70
2019-05-07T00:56:13.035Z,17.00
2019-05-07T00:57:18.535Z,17.60
2019-05-07T00:58:26.667Z,17.00
2019-05-07T00:59:29.559Z,17.70
2019-05-07T01:00:35.071Z,17.10
2019-05-07T01:01:40.572Z,16.80
2019-05-07T01:02:46.086Z,16.90
2019-05-07T01:03:53.393Z,17.00
2019-05-07T01:04:57.104Z,16.90
2019-05-07T01:06:02.609Z,17.00
2019-05-07T01:07:08.117Z,16.70
2019-05-07T01:08:13.628Z,16.80
2019-05-07T01:09:19.142Z,16.20
2019-05-07T01:10:24.646Z,16.50
2019-05-07T01:11:30.155Z,16.60
2019-05-07T01:12:35.665Z,16.10
2019-05-07T01:13:43.186Z,16.30
2019-05-07T01:14:46.692Z,17.10
2019-05-07T01:15:53.154Z,16.10
2019-05-07T01:16:57.693Z,15.80
2019-05-07T01:18:03.217Z,16.30
2019-05-07T01:19:08.721Z,15.60
2019-05-07T01:20:14.221Z,16.10
2019-05-07T01:21:19.734Z,16.30
2019-05-07T01:22:25.251Z,16.20
2019-05-07T01:23:32.205Z,17.00
2019-05-07T01:24:36.263Z,16.30
2019-05-07T01:25:43.075Z,16.60
2019-05-07T01:26:47.279Z,16.80
2019-05-07T01:27:53.286Z,16.20
2019-05-07T01:28:58.299Z,16.00
2019-05-07T01:30:03.813Z,16.30
2019-05-07T01:31:09.319Z,16.40
2019-05-07T01:32:14.820Z,15.90
2019-05-07T01:33:22.649Z,16.40
2019-05-07T01:34:25.845Z,16.30
2019-05-07T01:35:32.709Z,15.80
2019-05-07T01:36:36.854Z,16.20
2019-05-07T01:37:42.367Z,16.20
2019-05-07T01:38:47.879Z,16.80
2019-05-07T01:39:53.382Z,16.60
2019-05-07T01:40:58.894Z,16.30
2019-05-07T01:42:04.415Z,16.80
2019-05-07T01:43:11.946Z,16.80
2019-05-07T01:44:15.416Z,16.50
2019-05-07T01:45:22.440Z,16.90
2019-05-07T01:46:26.443Z,16.30
2019-05-07T01:47:33.210Z,16.80
2019-05-07T01:48:37.457Z,16.60
2019-05-07T01:49:42.965Z,17.10
2019-05-07T01:50:48.472Z,16.20
2019-05-07T01:51:53.982Z,17.00
2019-05-07T01:52:59.500Z,17.30
2019-05-07T01:54:05.005Z,17.10
2019-05-07T01:55:12.820Z,17.20
2019-05-07T01:56:16.018Z,16.40
2019-05-07T01:57:23.180Z,18.10
2019-05-07T01:58:27.038Z,17.20
2019-05-07T01:59:32.563Z,17.10
2019-05-07T02:00:38.047Z,17.20
2019-05-07T02:01:43.566Z,16.50
2019-05-07T02:02:49.072Z,17.10
2019-05-07T02:03:54.592Z,17.00
2019-05-07T02:05:00.096Z,16.80
2019-05-07T02:06:05.595Z,18.10
2019-05-07T02:07:11.970Z,17.40
2019-05-07T02:08:16.610Z,17.30
2019-05-07T02:09:22.549Z,17.00
2019-05-07T02:10:27.630Z,17.50
2019-05-07T02:11:33.147Z,16.90
2019-05-07T02:12:38.650Z,17.20
2019-05-07T02:13:44.164Z,17.00
2019-05-07T02:14:49.681Z,16.80
2019-05-07T02:16:01.305Z,17.20
2019-05-07T02:17:02.742Z,17.40
2019-05-07T02:18:06.196Z,17.30
2019-05-07T02:19:12.700Z,16.70
2019-05-07T02:20:17.207Z,17.40
2019-05-07T02:21:22.724Z,17.60
2019-05-07T02:22:28.225Z,16.30
2019-05-07T02:23:33.739Z,16.90
2019-05-07T02:24:39.247Z,16.50
2019-05-07T02:25:44.757Z,16.60
2019-05-07T02:26:52.066Z,16.40
2019-05-07T02:27:55.771Z,16.60
2019-05-07T02:29:02.780Z,16.60
2019-05-07T02:30:06.792Z,16.70
2019-05-07T02:31:14.962Z,16.20
2019-05-07T02:32:17.806Z,15.40
2019-05-07T02:33:23.320Z,15.20
2019-05-07T02:34:28.829Z,16.10
2019-05-07T02:35:34.338Z,16.40
2019-05-07T02:36:42.955Z,15.60
2019-05-07T02:37:50.811Z,15.90
2019-05-07T02:38:53.057Z,15.50
2019-05-07T02:39:56.369Z,16.20
2019-05-07T02:41:02.940Z,16.70
2019-05-07T02:42:07.384Z,17.40
2019-05-07T02:43:14.035Z,17.10
2019-05-07T02:44:18.413Z,18.10
2019-05-07T02:45:24.160Z,17.20
2019-05-07T02:46:31.992Z,17.90
2019-05-07T02:47:34.937Z,17.00
2019-05-07T02:48:42.918Z,16.80
2019-05-07T02:49:45.952Z,17.10
2019-05-07T02:50:53.903Z,18.10
2019-05-07T02:51:56.964Z,17.60
2019-05-07T02:53:04.182Z,17.70
2019-05-07T02:54:07.993Z,17.40
2019-05-07T02:55:13.593Z,18.00
2019-05-07T02:56:18.994Z,18.10
2019-05-07T02:57:24.503Z,17.90
2019-05-07T02:58:32.879Z,17.90
2019-05-07T02:59:35.523Z,17.90
2019-05-07T03:00:43.410Z,17.20
2019-05-07T03:01:46.538Z,17.20
2019-05-07T03:02:53.122Z,15.80
2019-05-07T03:03:57.557Z,16.00
2019-05-07T03:05:05.116Z,16.30
2019-05-07T03:06:08.572Z,17.00
2019-05-07T03:07:14.084Z,15.90
2019-05-07T03:08:23.499Z,15.90
2019-05-07T03:09:25.100Z,15.00
2019-05-07T03:10:33.606Z,14.70
2019-05-07T03:11:36.132Z,16.40
2019-05-07T03:12:42.991Z,15.50
2019-05-07T03:13:47.129Z,16.70
2019-05-07T03:14:53.756Z,16.20
2019-05-07T03:15:58.194Z,15.90
2019-05-07T03:17:03.657Z,15.00
2019-05-07T03:18:09.168Z,15.60
2019-05-07T03:19:14.672Z,15.30
2019-05-07T03:20:22.830Z,16.60
2019-05-07T03:21:25.689Z,16.70
2019-05-07T03:22:33.801Z,16.50
2019-05-07T03:23:36.706Z,16.50
2019-05-07T03:24:43.452Z,16.80
2019-05-07T03:25:47.754Z,16.40
2019-05-07T03:26:53.686Z,16.20
2019-05-07T03:27:58.738Z,16.10
2019-05-07T03:29:04.259Z,16.00
2019-05-07T03:30:09.771Z,15.70
2019-05-07T03:31:17.062Z,16.30
2019-05-07T03:32:26.662Z,16.50
2019-05-07T03:33:27.048Z,16.00
2019-05-07T03:34:36.681Z,16.30
2019-05-07T03:35:38.238Z,15.90
2019-05-07T03:36:47.746Z,16.70
2019-05-07T03:37:48.313Z,17.70
2019-05-07T03:38:53.903Z,17.40
2019-05-07T03:39:59.353Z,18.60
2019-05-07T03:41:04.836Z,18.90
2019-05-07T03:42:13.108Z,18.40
2019-05-07T03:43:15.851Z,19.00
2019-05-07T03:44:23.839Z,18.30
2019-05-07T03:45:26.866Z,18.70
2019-05-07T03:46:33.651Z,18.70
2019-05-07T03:47:37.887Z,19.00
2019-05-07T03:48:44.259Z,19.40
2019-05-07T03:49:48.898Z,18.90
2019-05-07T03:50:54.405Z,19.00
2019-05-07T03:51:59.910Z,18.80
2019-05-07T03:53:05.427Z,18.60
2019-05-07T03:54:10.931Z,18.50
2019-05-07T03:55:16.459Z,18.30
2019-05-07T03:56:23.648Z,17.80
2019-05-07T03:57:27.447Z,16.30
2019-05-07T03:58:33.994Z,16.20
2019-05-07T03:59:38.464Z,16.90
2019-05-07T04:00:44.497Z,16.90
2019-05-07T04:01:49.480Z,17.80
2019-05-07T04:02:54.996Z,18.60
2019-05-07T04:04:03.579Z,20.00
2019-05-07T04:05:06.018Z,18.70
2019-05-07T04:06:12.845Z,17.70
2019-05-07T04:07:17.027Z,18.60
2019-05-07T04:08:23.645Z,17.70
2019-05-07T04:09:28.057Z,18.00
2019-05-07T04:10:34.022Z,18.70
2019-05-07T04:11:39.064Z,18.20
2019-05-07T04:12:44.651Z,17.30
2019-05-07T04:13:53.251Z,17.80
2019-05-07T04:14:55.586Z,18.00
2019-05-07T04:16:03.986Z,17.80
2019-05-07T04:17:21.444Z,17.90
2019-05-07T04:18:13.183Z,18.30
2019-05-07T04:19:17.618Z,17.80
2019-05-07T04:20:23.953Z,17.80
2019-05-07T04:21:28.635Z,17.20
2019-05-07T04:22:34.712Z,17.50
2019-05-07T04:23:39.643Z,18.40
2019-05-07T04:24:45.157Z,17.70
2019-05-07T04:25:53.050Z,17.60
2019-05-07T04:26:56.193Z,17.30
2019-05-07T04:28:03.846Z,17.10
2019-05-07T04:29:07.193Z,18.10
2019-05-07T04:30:13.179Z,18.30
2019-05-07T04:31:18.199Z,17.80
2019-05-07T04:32:23.722Z,17.80
2019-05-07T04:33:29.222Z,17.90
2019-05-07T04:34:34.729Z,17.20
2019-05-07T04:35:43.059Z,17.40
2019-05-07T04:36:45.746Z,17.10
2019-05-07T04:37:53.306Z,16.30
2019-05-07T04:38:56.758Z,17.80
2019-05-07T04:40:03.217Z,17.80
2019-05-07T04:41:07.778Z,17.70
2019-05-07T04:42:13.468Z,18.10
2019-05-07T04:43:18.796Z,18.20
2019-05-07T04:44:24.316Z,18.40
2019-05-07T04:45:29.806Z,18.20
2019-05-07T04:46:35.326Z,18.60
2019-05-07T04:47:44.228Z,18.50
2019-05-07T04:48:46.337Z,18.00
2019-05-07T04:49:53.416Z,18.60
2019-05-07T04:50:57.354Z,18.50
2019-05-07T04:52:03.920Z,18.20
2019-05-07T04:53:08.370Z,18.10
2019-05-07T04:54:13.878Z,18.50
2019-05-07T04:55:19.387Z,18.30
2019-05-07T04:56:24.893Z,17.60
2019-05-07T04:57:32.829Z,18.60
2019-05-07T04:58:35.914Z,17.80
2019-05-07T04:59:42.797Z,18.00
2019-05-07T05:00:46.926Z,18.20
2019-05-07T05:01:53.240Z,17.70
2019-05-07T05:02:57.961Z,18.30
2019-05-07T05:04:21.104Z,17.70
2019-05-07T05:05:08.953Z,18.90
2019-05-07T05:06:14.472Z,18.50
2019-05-07T05:07:22.324Z,18.80
2019-05-07T05:08:25.482Z,18.70
2019-05-07T05:09:33.000Z,18.60
2019-05-07T05:10:36.505Z,18.70
2019-05-07T05:11:43.848Z,17.90
2019-05-07T05:12:47.514Z,18.70
2019-05-07T05:13:53.402Z,18.30
2019-05-07T05:14:58.531Z,18.70
2019-05-07T05:16:04.042Z,19.20
2019-05-07T05:17:09.557Z,17.60
2019-05-07T05:18:15.053Z,19.30
2019-05-07T05:19:22.852Z,18.90
2019-05-07T05:20:26.076Z,18.90
2019-05-07T05:21:32.234Z,18.80
2019-05-07T05:22:37.088Z,19.00
2019-05-07T05:23:42.599Z,20.30
2019-05-07T05:24:48.103Z,20.50
2019-05-07T05:25:53.621Z,19.80
2019-05-07T05:26:59.126Z,20.30
2019-05-07T05:28:04.638Z,19.90
2019-05-07T05:29:12.134Z,19.60
2019-05-07T05:30:15.651Z,19.70
2019-05-07T05:31:22.303Z,19.90
2019-05-07T05:32:26.670Z,20.10
2019-05-07T05:33:32.446Z,20.90
2019-05-07T05:34:37.680Z,20.60
2019-05-07T05:35:43.350Z,19.90
2019-05-07T05:36:48.697Z,20.20
2019-05-07T05:37:54.213Z,20.00
2019-05-07T05:38:59.719Z,19.80
2019-05-07T05:40:08.812Z,20.00
2019-05-07T05:41:12.247Z,20.40
2019-05-07T05:42:16.253Z,20.10
2019-05-07T05:43:22.387Z,19.70
2019-05-07T05:44:27.267Z,20.20
2019-05-07T05:45:33.486Z,20.30
2019-05-07T05:46:38.270Z,19.80
2019-05-07T05:47:45.013Z,20.60
2019-05-07T05:48:49.298Z,20.90
2019-05-07T05:49:54.804Z,20.60
2019-05-07T05:51:02.550Z,20.40
2019-05-07T05:53:59.538Z,20.50
2019-05-07T05:55:05.486Z,19.90
2019-05-07T05:56:11.834Z,19.70
2019-05-07T05:57:35.191Z,20.50
2019-05-07T05:58:52.614Z,21.30
2019-05-07T05:59:25.311Z,20.80
2019-05-07T06:00:35.317Z,21.10
2019-05-07T06:01:28.869Z,20.20
2019-05-07T06:03:19.155Z,21.40
2019-05-07T06:04:02.921Z,21.90
2019-05-07T06:05:41.535Z,20.80
2019-05-07T06:07:08.017Z,22.10
2019-05-07T06:08:17.962Z,20.10
2019-05-07T06:09:22.894Z,21.10
2019-05-07T06:11:02.827Z,20.70
2019-05-07T06:12:22.494Z,20.70
2019-05-07T06:13:23.936Z,21.50
2019-05-07T06:14:30.135Z,20.90
2019-05-07T06:15:52.203Z,21.10
2019-05-07T06:16:29.588Z,20.10
2019-05-07T06:17:39.842Z,20.60
2019-05-07T06:18:49.061Z,21.30
2019-05-07T06:20:12.297Z,21.00
2019-05-07T06:21:03.113Z,21.60
2019-05-07T06:21:56.051Z,23.20
2019-05-07T06:23:27.587Z,22.40
2019-05-07T06:24:03.329Z,23.20
2019-05-07T06:25:15.101Z,23.00
2019-05-07T06:26:32.421Z,22.00
2019-05-07T06:27:13.695Z,22.30
2019-05-07T06:28:46.257Z,21.60
2019-05-07T06:29:37.459Z,21.70
2019-05-07T06:30:33.836Z,21.00
2019-05-07T06:31:53.652Z,20.20
2019-05-07T06:33:04.821Z,21.00
2019-05-07T06:33:55.825Z,20.90
2019-05-07T06:35:51.989Z,22.00
2019-05-07T06:36:21.862Z,21.60
2019-05-07T06:37:32.082Z,21.30
2019-05-07T06:38:35.274Z,21.80
2019-05-07T06:39:36.711Z,21.00
2019-05-07T06:41:00.063Z,21.10
2019-05-07T06:42:02.099Z,22.10
2019-05-07T06:43:00.488Z,20.80
2019-05-07T06:43:54.145Z,21.10
2019-05-07T06:45:13.628Z,21.20
2019-05-07T06:46:07.168Z,21.50
2019-05-07T06:47:22.189Z,21.90
2019-05-07T06:48:32.776Z,21.50
2019-05-07T06:49:32.271Z,21.80
2019-05-07T06:50:58.701Z,21.80
2019-05-07T06:51:37.101Z,21.30
2019-05-07T06:52:42.427Z,20.20
2019-05-07T06:53:43.053Z,20.60
2019-05-07T06:54:47.983Z,21.20
2019-05-07T06:56:05.084Z,21.60
2019-05-07T06:57:18.608Z,21.30
2019-05-07T06:58:18.716Z,21.00
2019-05-07T06:59:07.978Z,20.30
2019-05-07T07:00:22.517Z,20.60
2019-05-07T07:01:33.994Z,21.70
2019-05-07T07:02:48.543Z,21.30
2019-05-07T07:03:47.527Z,19.50
2019-05-07T07:04:42.349Z,20.70
2019-05-07T07:05:57.575Z,21.20
2019-05-07T07:06:48.882Z,20.90
2019-05-07T07:08:02.249Z,20.70
2019-05-07T07:09:13.061Z,20.90
2019-05-07T07:10:27.500Z,21.10
2019-05-07T07:11:17.985Z,21.10
2019-05-07T07:12:25.859Z,21.30
2019-05-07T07:13:27.430Z,21.20
2019-05-07T07:14:33.582Z,21.30
2019-05-07T07:15:52.053Z,20.30
2019-05-07T07:16:39.423Z,19.90
2019-05-07T07:17:52.362Z,19.90
2019-05-07T07:18:55.918Z,19.80
2019-05-07T07:20:09.143Z,20.50
2019-05-07T07:21:21.839Z,20.80
2019-05-07T07:22:15.845Z,20.40
2019-05-07T07:23:14.075Z,19.80
2019-05-07T07:24:22.114Z,20.10
2019-05-07T07:25:34.981Z,19.40
2019-05-07T07:26:42.163Z,18.40
2019-05-07T07:27:45.948Z,19.50
2019-05-07T07:28:49.541Z,18.80
2019-05-07T07:29:52.348Z,18.40
2019-05-07T07:31:02.271Z,17.90
2019-05-07T07:32:12.707Z,18.70
2019-05-07T07:33:12.218Z,16.90
2019-05-07T07:34:22.876Z,17.80
2019-05-07T07:35:22.440Z,17.10
2019-05-07T07:36:24.512Z,14.80
2019-05-07T07:37:33.223Z,12.40
2019-05-07T07:38:39.059Z,13.90
2019-05-07T07:39:29.647Z,14.00
2019-05-07T07:40:45.219Z,14.90
2019-05-07T07:41:49.014Z,11.50
2019-05-07T07:42:58.243Z,8.90
2019-05-07T07:44:06.029Z,10.20
2019-05-07T07:45:07.981Z,13.80
2019-05-07T07:46:06.051Z,12.70
2019-05-07T07:47:15.878Z,13.60
2019-05-07T07:48:24.096Z,13.60
2019-05-07T07:49:28.896Z,14.00
2019-05-07T07:50:42.725Z,13.40
2019-05-07T07:51:38.104Z,14.40
2019-05-07T07:52:44.996Z,14.80
2019-05-07T07:53:55.755Z,13.60
2019-05-07T07:54:54.646Z,13.20
2019-05-07T07:56:06.828Z,13.10
2019-05-07T07:57:08.677Z,13.30
2019-05-07T07:58:23.331Z,14.30
2019-05-07T07:59:32.787Z,14.00
2019-05-07T08:00:29.675Z,11.60
2019-05-07T08:01:32.975Z,8.00
2019-05-07T08:02:39.543Z,8.30
2019-05-07T08:03:33.044Z,5.70
2019-05-07T08:04:46.714Z,4.40
2019-05-07T08:06:02.168Z,5.90
2019-05-07T08:06:55.643Z,7.00
2019-05-07T08:07:55.137Z,7.20
2019-05-07T08:09:02.409Z,7.70
2019-05-07T08:10:14.602Z,7.00
2019-05-07T08:11:22.803Z,7.40
2019-05-07T08:12:18.203Z,7.40
2019-05-07T08:13:29.471Z,6.50
2019-05-07T08:14:32.319Z,7.80
2019-05-07T08:15:37.985Z,7.70
2019-05-07T08:16:49.054Z,7.90
2019-05-07T08:17:56.330Z,7.40
2019-05-07T08:18:54.108Z,8.10
2019-05-07T08:19:55.318Z,8.10
2019-05-07T08:21:08.130Z,8.40
2019-05-07T08:22:18.475Z,8.10
2019-05-07T08:23:14.999Z,9.30
2019-05-07T08:24:24.125Z,9.40
2019-05-07T08:25:32.106Z,9.20
2019-05-07T08:26:34.277Z,9.50
2019-05-07T08:27:33.776Z,9.90
2019-05-07T08:28:41.857Z,8.40
2019-05-07T08:29:45.052Z,8.40
2019-05-07T08:30:58.566Z,8.30
2019-05-07T08:31:56.218Z,8.10
2019-05-07T08:33:14.624Z,8.90
2019-05-07T08:34:03.912Z,7.90
2019-05-07T08:35:14.110Z,8.10
2019-05-07T08:36:32.963Z,8.50
2019-05-07T08:37:33.533Z,7.40
2019-05-07T08:39:02.595Z,7.60
2019-05-07T08:39:43.887Z,6.90
2019-05-07T08:40:48.875Z,7.20
2019-05-07T08:41:53.937Z,6.80
2019-05-07T08:43:04.894Z,7.70
2019-05-07T08:44:11.635Z,8.00
2019-05-07T08:45:03.023Z,8.30
2019-05-07T08:46:14.033Z,8.40
2019-05-07T08:47:22.849Z,9.00
2019-05-07T08:48:34.834Z,8.50
2019-05-07T08:49:53.685Z,8.40
2019-05-07T08:50:37.613Z,8.60
2019-05-07T08:51:37.311Z,8.30
2019-05-07T08:52:55.443Z,8.60
2019-05-07T08:53:58.829Z,7.70
2019-05-07T08:55:07.543Z,8.30
2019-05-07T08:56:19.630Z,8.00
2019-05-07T08:57:03.150Z,7.80
2019-05-07T08:58:17.593Z,8.00
2019-05-07T08:59:14.232Z,8.10
2019-05-07T09:00:22.281Z,8.00
2019-05-07T09:01:44.248Z,7.70
2019-05-07T09:03:26.461Z,7.60
2019-05-07T09:03:54.391Z,7.90
2019-05-07T09:04:58.190Z,7.90
2019-05-07T09:06:37.005Z,7.50
2019-05-07T09:07:03.219Z,7.80
2019-05-07T09:08:25.150Z,8.10
2019-05-07T09:09:32.662Z,8.40
2019-05-07T09:10:42.372Z,7.90
2019-05-07T09:11:54.351Z,8.20
2019-05-07T09:12:43.600Z,8.20
2019-05-07T09:14:05.929Z,8.10
2019-05-07T09:14:44.022Z,8.40
2019-05-07T09:16:42.561Z,8.20
2019-05-07T09:17:34.113Z,8.10
2019-05-07T09:19:15.079Z,7.80
2019-05-07T09:19:48.297Z,8.10
2019-05-07T09:21:22.769Z,7.80
2019-05-07T09:22:33.327Z,7.60
2019-05-07T09:23:28.527Z,7.00
2019-05-07T09:24:20.026Z,7.70
2019-05-07T09:25:42.764Z,7.50
2019-05-07T09:26:52.353Z,8.20
2019-05-07T09:27:30.082Z,8.00
2019-05-07T09:28:28.654Z,8.20
2019-05-07T09:29:45.463Z,8.00
2019-05-07T09:31:02.768Z,8.20
2019-05-07T09:32:12.196Z,8.40
2019-05-07T09:32:43.537Z,8.60
2019-05-07T09:33:59.205Z,8.80
2019-05-07T09:35:17.849Z,8.50
2019-05-07T09:36:17.242Z,8.30
2019-05-07T09:37:28.040Z,8.20
2019-05-07T09:38:32.600Z,8.60
2019-05-07T09:39:32.727Z,8.10
2019-05-07T09:40:42.010Z,7.20
2019-05-07T09:41:52.808Z,7.10
2019-05-07T09:42:47.283Z,7.70
2019-05-07T09:43:42.429Z,7.90
2019-05-07T09:44:56.655Z,7.10
2019-05-07T09:46:02.837Z,7.40
2019-05-07T09:47:07.690Z,6.80
2019-05-07T09:48:14.473Z,7.00
2019-05-07T09:49:22.129Z,7.30
2019-05-07T09:50:15.086Z,7.00
2019-05-07T09:51:31.670Z,7.00
2019-05-07T09:52:32.119Z,7.00
2019-05-07T09:53:42.380Z,7.50
2019-05-07T09:54:42.683Z,7.40
2019-05-07T09:55:47.879Z,7.40
2019-05-07T09:56:58.756Z,6.60
2019-05-07T09:57:52.721Z,6.80
2019-05-07T09:59:12.688Z,7.30
2019-05-07T10:00:14.143Z,7.50
2019-05-07T10:01:19.773Z,7.40
2019-05-07T10:02:22.614Z,7.20
2019-05-07T10:03:23.264Z,7.60
2019-05-07T10:04:32.553Z,7.90
2019-05-07T10:05:51.802Z,7.80
2019-05-07T10:06:45.816Z,7.40
2019-05-07T10:07:52.571Z,7.30
2019-05-07T10:08:54.121Z,7.40
2019-05-07T10:10:11.897Z,7.80
2019-05-07T10:11:12.122Z,7.60
2019-05-07T10:12:16.458Z,7.10
2019-05-07T10:13:12.167Z,7.30
2019-05-07T10:14:29.585Z,8.00
2019-05-07T10:15:28.259Z,7.80
2019-05-07T10:16:31.650Z,7.60
2019-05-07T10:17:36.682Z,7.20
2019-05-07T10:18:42.824Z,7.30
2019-05-07T10:19:47.233Z,7.30
2019-05-07T10:20:57.582Z,7.30
2019-05-07T10:21:55.234Z,7.80
2019-05-07T10:23:17.463Z,8.10
2019-05-07T10:24:22.084Z,8.10
2019-05-07T10:25:19.624Z,8.30
2019-05-07T10:26:23.014Z,8.30
2019-05-07T10:27:37.867Z,8.10
2019-05-07T10:28:32.010Z,8.20
2019-05-07T10:29:48.019Z,8.50
2019-05-07T10:30:53.963Z,9.20
2019-05-07T10:31:47.315Z,9.40
2019-05-07T10:32:54.185Z,9.60
2019-05-07T10:34:03.917Z,9.70
2019-05-07T10:35:03.107Z,9.90
2019-05-07T10:36:09.054Z,9.20
2019-05-07T10:37:24.631Z,9.40
2019-05-07T10:38:32.208Z,10.10
2019-05-07T10:39:30.063Z,9.80
2019-05-07T10:40:35.191Z,9.20
2019-05-07T10:41:46.767Z,9.40
2019-05-07T10:42:45.858Z,8.70
2019-05-07T10:43:45.761Z,9.10
2019-05-07T10:45:02.931Z,8.70
2019-05-07T10:46:02.352Z,8.60
2019-05-07T10:47:07.286Z,8.30
2019-05-07T10:48:17.734Z,8.60
2019-05-07T10:49:14.572Z,8.70
2019-05-07T10:50:34.606Z,8.40
2019-05-07T10:51:33.115Z,8.70
2019-05-07T10:52:38.040Z,8.30
2019-05-07T10:53:36.508Z,8.50
2019-05-07T10:54:56.782Z,8.30
2019-05-07T10:55:51.581Z,8.70
2019-05-07T10:57:00.085Z,8.50
2019-05-07T10:58:02.899Z,8.70
2019-05-07T10:59:12.369Z,8.40
2019-05-07T11:00:12.340Z,8.60
2019-05-07T11:01:17.622Z,7.90
2019-05-07T11:02:24.896Z,8.70
2019-05-07T11:03:21.842Z,8.80
2019-05-07T11:04:39.045Z,8.10
2019-05-07T11:05:42.940Z,8.10
2019-05-07T11:06:54.417Z,8.20
2019-05-07T11:07:56.676Z,8.40
2019-05-07T11:08:56.065Z,8.90
2019-05-07T11:10:07.550Z,8.70
2019-05-07T11:11:07.867Z,8.50
2019-05-07T11:12:31.905Z,9.00
2019-05-07T11:13:19.341Z,9.20
2019-05-07T11:14:29.493Z,8.40
2019-05-07T11:15:32.410Z,8.80
2019-05-07T11:16:40.152Z,9.10
2019-05-07T11:17:37.500Z,8.80
2019-05-07T11:18:52.247Z,8.60
2019-05-07T11:19:54.299Z,8.60
2019-05-07T11:20:53.328Z,8.50
2019-05-07T11:22:00.664Z,8.60
2019-05-07T11:23:11.013Z,8.50
2019-05-07T11:24:15.420Z,8.10
2019-05-07T11:25:17.990Z,8.90
2019-05-07T11:26:22.199Z,8.70
2019-05-07T11:27:29.983Z,8.70
2019-05-07T11:28:37.577Z,9.00
2019-05-07T11:29:43.824Z,8.60
2019-05-07T11:30:49.460Z,8.10
2019-05-07T11:31:58.172Z,8.50
2019-05-07T11:32:57.054Z,8.40
2019-05-07T11:34:04.844Z,8.40
2019-05-07T11:35:00.446Z,9.00
2019-05-07T11:36:25.139Z,8.90
2019-05-07T11:37:24.114Z,8.10
2019-05-07T11:38:24.982Z,7.90
2019-05-07T11:39:33.761Z,7.90
2019-05-07T11:40:42.609Z,7.10
2019-05-07T11:41:54.964Z,7.40
2019-05-07T11:42:45.350Z,7.80
2019-05-07T11:43:49.245Z,7.80
2019-05-07T11:45:02.979Z,7.30
2019-05-07T11:46:13.022Z,7.60
2019-05-07T11:47:12.359Z,7.80
2019-05-07T11:48:18.968Z,7.50
2019-05-07T11:49:23.787Z,7.40
2019-05-07T11:50:29.935Z,8.50
2019-05-07T11:51:37.932Z,7.30
2019-05-07T11:52:45.925Z,7.90
2019-05-07T11:53:44.293Z,7.50
2019-05-07T11:54:45.332Z,8.60
2019-05-07T11:55:52.228Z,8.10
2019-05-07T11:56:59.983Z,8.10
2019-05-07T11:57:59.274Z,8.00
2019-05-07T11:59:22.048Z,8.00
2019-05-07T12:00:12.861Z,8.80
2019-05-07T12:01:23.056Z,8.40
2019-05-07T12:02:34.220Z,8.80
2019-05-07T12:03:35.156Z,9.20
2019-05-07T12:04:42.628Z,9.10
2019-05-07T12:05:42.262Z,9.40
2019-05-07T12:06:43.970Z,9.90
2019-05-07T12:07:46.131Z,9.20
2019-05-07T12:08:56.585Z,9.20
2019-05-07T12:10:04.875Z,9.00
2019-05-07T12:11:18.923Z,8.90
2019-05-07T12:12:26.811Z,8.90
2019-05-07T12:13:27.738Z,8.70
2019-05-07T12:14:31.624Z,9.00
2019-05-07T12:15:42.815Z,8.70
2019-05-07T12:16:48.651Z,9.30
2019-05-07T12:17:48.556Z,8.70
2019-05-07T12:18:55.506Z,8.50
2019-05-07T12:19:59.117Z,8.60
2019-05-07T12:21:16.550Z,9.00
2019-05-07T12:22:13.669Z,8.10
2019-05-07T12:23:07.024Z,8.10
2019-05-07T12:24:19.110Z,8.50
2019-05-07T12:25:45.024Z,8.40
2019-05-07T12:26:30.491Z,8.30
2019-05-07T12:27:32.199Z,8.30
2019-05-07T12:28:41.855Z,8.90
2019-05-07T12:29:43.825Z,9.30
2019-05-07T12:30:54.993Z,8.90
2019-05-07T12:31:59.002Z,8.50
2019-05-07T12:32:57.672Z,8.30
2019-05-07T12:34:19.691Z,8.80
2019-05-07T12:35:13.453Z,8.60
2019-05-07T12:36:22.867Z,8.50
2019-05-07T12:37:26.880Z,8.50
2019-05-07T12:38:32.520Z,8.60
2019-05-07T12:39:37.544Z,8.70
2019-05-07T12:40:41.941Z,9.30
2019-05-07T12:41:48.824Z,9.30
2019-05-07T12:42:49.443Z,9.10
2019-05-07T12:43:56.514Z,9.60
2019-05-07T12:45:02.302Z,9.70
2019-05-07T12:46:04.924Z,9.50
2019-05-07T12:47:15.683Z,9.70
2019-05-07T12:48:15.692Z,9.50
2019-05-07T12:49:29.520Z,9.60
2019-05-07T12:50:29.425Z,9.50
2019-05-07T12:51:37.476Z,9.00
2019-05-07T12:52:43.674Z,9.50
2019-05-07T12:53:43.510Z,9.80
2019-05-07T12:54:45.328Z,9.30
2019-05-07T12:55:59.160Z,9.00
2019-05-07T12:56:56.303Z,9.50
2019-05-07T12:58:05.009Z,9.20
2019-05-07T12:59:14.537Z,9.20
2019-05-07T13:00:14.567Z,9.00
2019-05-07T13:01:27.570Z,9.40
2019-05-07T13:02:44.098Z,9.70
2019-05-07T13:03:42.738Z,9.50
2019-05-07T13:04:37.304Z,10.00
2019-05-07T13:05:48.577Z,10.00
2019-05-07T13:06:44.792Z,9.80
2019-05-07T13:07:52.693Z,10.50
2019-05-07T13:09:02.114Z,10.30
2019-05-07T13:10:08.464Z,10.50
2019-05-07T13:11:16.084Z,10.30
2019-05-07T13:12:37.260Z,10.40
2019-05-07T13:13:36.654Z,10.20
2019-05-07T13:14:24.575Z,10.10
2019-05-07T13:15:54.071Z,9.80
2019-05-07T13:16:46.401Z,9.50
2019-05-07T13:17:52.019Z,10.40
2019-05-07T13:18:56.345Z,10.60
2019-05-07T13:20:01.869Z,10.70
2019-05-07T13:21:04.550Z,9.30
2019-05-07T13:22:15.411Z,9.20
2019-05-07T13:23:13.267Z,9.50
2019-05-07T13:24:26.384Z,10.00
2019-05-07T13:25:32.257Z,9.40
2019-05-07T13:26:24.337Z,9.40
2019-05-07T13:27:40.101Z,9.40
2019-05-07T13:28:46.588Z,10.10
2019-05-07T13:29:49.562Z,9.60
2019-05-07T13:30:58.587Z,9.60
2019-05-07T13:37:21.958Z,7.60
2019-05-07T13:38:26.761Z,7.40
2019-05-07T13:39:32.648Z,8.40
2019-05-07T13:40:37.767Z,7.90
2019-05-07T13:41:43.291Z,8.80
2019-05-07T13:42:48.799Z,8.10
2019-05-07T13:43:54.303Z,8.40
2019-05-07T13:44:59.816Z,8.10
2019-05-07T13:46:05.339Z,8.00
2019-05-07T13:47:12.437Z,8.20
2019-05-07T13:48:16.351Z,7.80
2019-05-07T13:49:22.042Z,8.20
2019-05-07T13:50:27.398Z,8.20
2019-05-07T13:51:33.806Z,8.40
2019-05-07T13:52:38.431Z,7.80
2019-05-07T13:53:43.928Z,7.40
2019-05-07T13:54:49.426Z,7.40
2019-05-07T13:55:54.936Z,6.90
2019-05-07T13:57:00.481Z,6.60
2019-05-07T13:58:05.958Z,6.90
2019-05-07T13:59:13.186Z,6.60
2019-05-07T14:00:16.984Z,6.50
2019-05-07T14:01:22.972Z,6.70
2019-05-07T14:02:28.010Z,6.80
2019-05-07T14:03:33.522Z,6.30
2019-05-07T14:04:39.038Z,5.70
2019-05-07T14:05:44.553Z,6.10
2019-05-07T14:06:50.062Z,6.70
2019-05-07T14:07:55.582Z,6.70
2019-05-07T14:09:01.089Z,6.90
2019-05-07T14:10:06.644Z,7.20
2019-05-07T14:11:12.310Z,6.20
2019-05-07T14:12:17.622Z,6.50
2019-05-07T14:13:23.153Z,6.50
2019-05-07T14:14:28.657Z,6.10
2019-05-07T14:15:35.009Z,6.20
2019-05-07T14:16:39.687Z,6.20
2019-05-07T14:17:45.198Z,6.10
2019-05-07T14:18:50.705Z,6.20
2019-05-07T14:19:56.230Z,6.30
2019-05-07T14:21:01.797Z,7.10
2019-05-07T14:22:15.397Z,6.60
2019-05-07T14:23:14.447Z,6.50
2019-05-07T14:24:18.272Z,6.60
2019-05-07T14:25:24.243Z,7.50